createdAt,value
2022-08-17T00:02:25.226Z,95288.78
2022-08-17T00:04:55.001Z,95291.50
2022-08-17T00:07:22.709Z,95294.19
2022-08-17T00:09:49.330Z,95296.34
2022-08-17T00:12:43.136Z,95296.34
2022-08-17T00:15:04.793Z,95301.75
2022-08-17T00:17:31.346Z,95289.66
2022-08-17T00:19:57.897Z,95287.78
2022-08-17T00:22:34.672Z,95296.94
2022-08-17T00:25:07.371Z,95287.28
2022-08-17T00:27:34.702Z,95281.66
2022-08-17T00:30:01.546Z,95286.72
2022-08-17T00:33:12.321Z,95286.22
2022-08-17T00:35:17.718Z,95293.19
2022-08-17T00:37:44.459Z,95289.97
2022-08-17T00:40:13.448Z,95288.91
2022-08-17T00:42:40.099Z,95284.91
2022-08-17T00:45:08.457Z,95286.00
2022-08-17T00:47:35.068Z,95289.47
2022-08-17T00:50:02.174Z,95287.06
2022-08-17T00:52:36.049Z,95288.91
2022-08-17T00:55:04.782Z,95295.38
2022-08-17T00:57:36.524Z,95301.81
2022-08-17T01:00:26.666Z,95298.34
2022-08-17T01:02:59.019Z,95301.56
2022-08-17T01:05:29.644Z,95294.31
2022-08-17T01:07:57.287Z,95285.19
2022-08-17T01:10:58.798Z,95287.34
2022-08-17T01:13:24.576Z,95293.25
2022-08-17T01:15:57.427Z,95290.31
2022-08-17T01:18:26.204Z,95284.38
2022-08-17T01:20:55.611Z,95291.59
2022-08-17T01:23:25.062Z,95295.38
2022-08-17T01:25:55.591Z,95291.88
2022-08-17T01:28:33.375Z,95305.00
2022-08-17T01:31:11.704Z,95300.19
2022-08-17T01:33:38.560Z,95307.41
2022-08-17T01:36:07.246Z,95295.88
2022-08-17T01:38:38.424Z,95305.56
2022-08-17T01:41:15.489Z,95300.47
2022-08-17T01:43:51.028Z,95305.00
2022-08-17T01:46:22.795Z,95307.16
2022-08-17T01:48:51.223Z,95301.25
2022-08-17T01:51:20.144Z,95305.00
2022-08-17T01:53:54.341Z,95307.69
2022-08-17T01:56:24.165Z,95303.13
2022-08-17T01:58:51.092Z,95312.78
2022-08-17T02:01:20.818Z,95311.69
2022-08-17T02:03:54.541Z,95303.91
2022-08-17T02:06:29.208Z,95309.28
2022-08-17T02:09:02.850Z,95295.34
2022-08-17T02:11:32.313Z,95311.41
2022-08-17T02:14:03.328Z,95308.22
2022-08-17T02:16:37.459Z,95309.81
2022-08-17T02:19:10.991Z,95317.56
2022-08-17T02:21:39.325Z,95315.72
2022-08-17T02:24:10.959Z,95306.88
2022-08-17T02:26:37.486Z,95306.59
2022-08-17T02:29:04.348Z,95303.13
2022-08-17T02:31:31.250Z,95311.19
2022-08-17T02:34:03.857Z,95312.50
2022-08-17T02:36:32.935Z,95310.38
2022-08-17T02:39:01.421Z,95309.81
2022-08-17T02:41:27.963Z,95309.56
2022-08-17T02:43:54.548Z,95318.41
2022-08-17T02:46:21.084Z,95315.72
2022-08-17T02:48:47.586Z,95313.31
2022-08-17T02:51:14.659Z,95313.06
2022-08-17T02:53:41.204Z,95303.69
2022-08-17T02:56:08.208Z,95308.78
2022-08-17T02:58:36.068Z,95311.44
2022-08-17T03:01:05.748Z,95310.09
2022-08-17T03:03:32.454Z,95304.19
2022-08-17T03:05:59.121Z,95308.78
2022-08-17T03:08:25.715Z,95306.09
2022-08-17T03:10:52.579Z,95306.63
2022-08-17T03:13:19.545Z,95310.38
2022-08-17T03:15:48.009Z,95318.69
2022-08-17T03:18:19.103Z,95322.19
2022-08-17T03:20:51.724Z,95321.63
2022-08-17T03:23:18.778Z,95325.91
2022-08-17T03:25:50.518Z,95321.63
2022-08-17T03:28:20.799Z,95325.91
2022-08-17T03:30:47.459Z,95314.94
2022-08-17T03:33:14.052Z,95329.69
2022-08-17T03:35:41.803Z,95325.66
2022-08-17T03:38:10.233Z,95329.69
2022-08-17T03:40:56.412Z,95322.75
2022-08-17T03:43:24.090Z,95325.41
2022-08-17T03:46:10.948Z,95321.66
2022-08-17T03:49:12.911Z,95332.66
2022-08-17T03:51:57.952Z,95328.88
2022-08-17T03:54:43.059Z,95329.16
2022-08-17T03:57:11.539Z,95325.97
2022-08-17T03:59:39.279Z,95332.91
2022-08-17T04:02:09.749Z,95329.69
2022-08-17T04:04:37.329Z,95337.19
2022-08-17T04:07:04.383Z,95339.88
2022-08-17T04:09:31.147Z,95346.31
2022-08-17T04:11:57.688Z,95342.53
2022-08-17T04:14:37.883Z,95341.75
2022-08-17T04:17:21.914Z,95344.72
2022-08-17T04:19:48.450Z,95349.53
2022-08-17T04:22:32.622Z,95345.78
2022-08-17T04:25:15.542Z,95341.50
2022-08-17T04:27:42.088Z,95346.59
2022-08-17T04:30:09.312Z,95344.19
2022-08-17T04:33:09.890Z,95340.69
2022-08-17T04:35:43.846Z,95338.28
2022-08-17T04:38:13.460Z,95351.13
2022-08-17T04:40:58.603Z,95351.66
2022-08-17T04:43:27.290Z,95358.09
2022-08-17T04:46:05.994Z,95358.06
2022-08-17T04:48:40.031Z,95361.84
2022-08-17T04:51:11.573Z,95363.97
2022-08-17T04:53:40.104Z,95366.94
2022-08-17T04:56:07.495Z,95364.00
2022-08-17T04:58:38.600Z,95364.28
2022-08-17T05:01:05.966Z,95358.63
2022-08-17T05:03:32.667Z,95356.50
2022-08-17T05:05:59.499Z,95364.28
2022-08-17T05:08:26.374Z,95362.94
2022-08-17T05:10:52.982Z,95366.16
2022-08-17T05:13:24.755Z,95363.75
2022-08-17T05:15:55.239Z,95361.06
2022-08-17T05:18:22.244Z,95373.66
2022-08-17T05:20:52.517Z,95366.16
2022-08-17T05:23:21.197Z,95372.84
2022-08-17T05:25:51.128Z,95369.91
2022-08-17T05:28:24.035Z,95372.31
2022-08-17T05:30:51.049Z,95375.25
2022-08-17T05:33:20.741Z,95374.97
2022-08-17T05:35:50.556Z,95372.03
2022-08-17T05:38:20.054Z,95373.66
2022-08-17T05:40:46.950Z,95373.66
2022-08-17T05:43:17.086Z,95370.16
2022-08-17T05:45:55.291Z,95376.88
2022-08-17T05:48:35.544Z,95384.09
2022-08-17T05:51:48.229Z,95375.78
2022-08-17T05:54:36.095Z,95378.19
2022-08-17T05:57:24.218Z,95375.78
2022-08-17T06:00:04.606Z,95381.44
2022-08-17T06:02:54.007Z,95373.13
2022-08-17T06:05:26.592Z,95374.97
2022-08-17T06:08:12.159Z,95376.88
2022-08-17T06:10:47.833Z,95369.38
2022-08-17T06:13:35.658Z,95371.22
2022-08-17T06:16:34.442Z,95369.88
2022-08-17T06:19:00.929Z,95366.66
2022-08-17T06:21:33.993Z,95363.94
2022-08-17T06:24:25.583Z,95363.94
2022-08-17T06:26:53.952Z,95361.22
2022-08-17T06:29:29.334Z,95368.69
2022-08-17T06:31:55.870Z,95364.41
2022-08-17T06:34:22.424Z,95372.44
2022-08-17T06:36:58.636Z,95361.13
2022-08-17T06:39:45.863Z,95360.56
2022-08-17T06:43:05.074Z,95366.94
2022-08-17T06:45:18.305Z,95366.13
2022-08-17T06:48:10.454Z,95368.75
2022-08-17T06:50:47.894Z,95369.47
2022-08-17T06:53:52.779Z,95365.09
2022-08-17T06:56:53.263Z,95373.66
2022-08-17T06:59:25.468Z,95366.84
2022-08-17T07:01:55.445Z,95363.56
2022-08-17T07:04:30.131Z,95356.72
2022-08-17T07:07:26.809Z,95363.03
2022-08-17T07:09:56.519Z,95364.34
2022-08-17T07:12:27.997Z,95360.69
2022-08-17T07:15:11.151Z,95354.09
2022-08-17T07:17:47.576Z,95356.69
2022-08-17T07:20:20.605Z,95359.84
2022-08-17T07:23:01.953Z,95351.94
2022-08-17T07:25:30.660Z,95352.59
2022-08-17T07:28:02.449Z,95346.31
2022-08-17T07:30:47.245Z,95345.59
2022-08-17T07:33:20.200Z,95346.50
2022-08-17T07:35:48.450Z,95355.69
2022-08-17T07:38:26.896Z,95352.28
2022-08-17T07:41:02.994Z,95354.25
2022-08-17T07:43:32.920Z,95355.47
2022-08-17T07:46:38.631Z,95353.53
2022-08-17T07:49:06.746Z,95348.56
2022-08-17T07:51:36.377Z,95346.03
2022-08-17T07:54:15.105Z,95351.34
2022-08-17T07:56:47.053Z,95350.47
2022-08-17T07:59:23.551Z,95352.06
2022-08-17T08:02:03.832Z,95357.50
2022-08-17T08:04:59.656Z,95350.72
2022-08-17T08:07:31.837Z,95357.78
2022-08-17T08:10:15.244Z,95355.06
2022-08-17T08:12:47.165Z,95353.66
2022-08-17T08:15:33.293Z,95356.63
2022-08-17T08:18:03.081Z,95357.72
2022-08-17T08:20:52.984Z,95358.59
2022-08-17T08:23:35.142Z,95361.94
2022-08-17T08:26:17.945Z,95357.72
2022-08-17T08:28:51.216Z,95366.53
2022-08-17T08:31:42.235Z,95363.69
2022-08-17T08:34:46.324Z,95358.03
2022-08-17T08:37:42.028Z,95359.13
2022-08-17T08:40:46.888Z,95369.03
2022-08-17T08:43:31.453Z,95365.06
2022-08-17T08:46:06.806Z,95364.94
2022-08-17T08:49:12.273Z,95365.09
2022-08-17T08:51:49.416Z,95359.06
2022-08-17T08:54:27.305Z,95360.22
2022-08-17T08:57:24.356Z,95371.78
2022-08-17T09:00:16.989Z,95364.94
2022-08-17T09:02:58.694Z,95367.03
2022-08-17T09:05:33.083Z,95369.44
2022-08-17T09:07:59.555Z,95364.34
2022-08-17T09:10:49.777Z,95360.69
2022-08-17T09:13:23.455Z,95363.25
2022-08-17T09:16:23.148Z,95371.38
2022-08-17T09:19:02.653Z,95377.66
2022-08-17T09:21:48.735Z,95371.63
2022-08-17T09:24:43.410Z,95380.25
2022-08-17T09:27:15.906Z,95379.44
2022-08-17T09:29:48.467Z,95385.03
2022-08-17T09:32:24.817Z,95378.03
2022-08-17T09:34:57.174Z,95380.31
2022-08-17T09:37:35.626Z,95371.03
2022-08-17T09:40:21.231Z,95384.47
2022-08-17T09:42:54.350Z,95389.09
2022-08-17T09:45:30.991Z,95384.16
2022-08-17T09:48:14.575Z,95386.25
2022-08-17T09:51:03.355Z,95380.06
2022-08-17T09:53:32.741Z,95370.16
2022-08-17T09:56:14.295Z,95370.50
2022-08-17T09:58:50.505Z,95382.19
2022-08-17T10:01:36.699Z,95375.97
2022-08-17T10:04:20.382Z,95366.09
2022-08-17T10:06:58.854Z,95374.53
2022-08-17T10:09:42.238Z,95379.50
2022-08-17T10:12:30.120Z,95369.91
2022-08-17T10:15:15.783Z,95380.59
2022-08-17T10:18:03.745Z,95378.22
2022-08-17T10:20:41.578Z,95373.09
2022-08-17T10:23:41.185Z,95381.09
2022-08-17T10:26:13.009Z,95380.94
2022-08-17T10:29:24.481Z,95385.25
2022-08-17T10:32:01.652Z,95378.06
2022-08-17T10:34:41.692Z,95377.88
2022-08-17T10:37:40.166Z,95383.97
2022-08-17T10:40:33.157Z,95378.03
2022-08-17T10:43:29.447Z,95380.28
2022-08-17T10:46:30.289Z,95377.09
2022-08-17T10:49:15.918Z,95372.78
2022-08-17T10:51:47.920Z,95369.91
2022-08-17T10:54:39.297Z,95373.09
2022-08-17T10:57:31.742Z,95379.00
2022-08-17T11:00:04.400Z,95377.88
2022-08-17T11:02:51.248Z,95379.19
2022-08-17T11:05:23.798Z,95386.69
2022-08-17T11:07:53.377Z,95391.16
2022-08-17T11:10:38.169Z,95376.78
2022-08-17T11:13:45.040Z,95382.84
2022-08-17T11:16:33.021Z,95377.25
2022-08-17T11:19:18.025Z,95373.75
2022-08-17T11:21:59.646Z,95370.56
2022-08-17T11:24:35.340Z,95373.59
2022-08-17T11:27:12.320Z,95366.38
2022-08-17T11:29:58.174Z,95365.75
2022-08-17T11:32:37.432Z,95358.03
2022-08-17T11:35:20.925Z,95351.63
2022-08-17T11:38:09.685Z,95346.78
2022-08-17T11:40:53.565Z,95345.66
2022-08-17T11:43:30.103Z,95352.69
2022-08-17T11:46:10.846Z,95352.84
2022-08-17T11:49:11.224Z,95359.53
2022-08-17T11:52:13.022Z,95346.22
2022-08-17T11:54:47.867Z,95350.28
2022-08-17T11:57:26.383Z,95351.22
2022-08-17T12:00:30.177Z,95349.28
2022-08-17T12:03:22.542Z,95353.25
2022-08-17T12:05:53.536Z,95356.44
2022-08-17T12:08:21.682Z,95359.94
2022-08-17T12:10:59.712Z,95365.72
2022-08-17T12:13:35.205Z,95368.09
2022-08-17T12:16:07.313Z,95364.94
2022-08-17T12:18:38.447Z,95372.63
2022-08-17T12:21:22.301Z,95369.09
2022-08-17T12:24:31.485Z,95358.34
2022-08-17T12:27:01.213Z,95361.50
2022-08-17T12:29:38.358Z,95364.81
2022-08-17T12:32:13.010Z,95359.47
2022-08-17T12:34:42.213Z,95357.03
2022-08-17T12:37:22.544Z,95368.19
2022-08-17T12:40:02.180Z,95372.38
2022-08-17T12:42:39.410Z,95355.94
2022-08-17T12:45:24.340Z,95356.56
2022-08-17T12:48:06.596Z,95361.81
2022-08-17T12:50:39.500Z,95358.81
2022-08-17T12:53:15.903Z,95365.59
2022-08-17T12:55:44.472Z,95364.84
2022-08-17T12:58:14.487Z,95372.19
2022-08-17T13:00:48.827Z,95370.66
2022-08-17T13:03:19.401Z,95375.44
2022-08-17T13:05:52.019Z,95376.22
2022-08-17T13:08:21.071Z,95383.13
2022-08-17T13:10:57.202Z,95376.75
2022-08-17T13:13:28.165Z,95367.66
2022-08-17T13:16:00.424Z,95375.69
2022-08-17T13:18:48.031Z,95371.84
2022-08-17T13:21:23.846Z,95368.13
2022-08-17T13:24:08.004Z,95351.78
2022-08-17T13:26:38.714Z,95357.69
2022-08-17T13:29:08.290Z,95365.06
2022-08-17T13:31:52.089Z,95370.38
2022-08-17T13:34:31.836Z,95373.44
2022-08-17T13:37:27.104Z,95373.28
2022-08-17T13:40:07.459Z,95377.16
2022-08-17T13:42:52.178Z,95384.38
2022-08-17T13:45:36.494Z,95392.53
2022-08-17T13:48:17.057Z,95387.09
2022-08-17T13:50:55.768Z,95387.72
2022-08-17T13:53:29.527Z,95385.50
2022-08-17T13:56:37.082Z,95382.78
2022-08-17T13:59:11.074Z,95390.94
2022-08-17T14:01:41.992Z,95386.78
2022-08-17T14:04:14.956Z,95383.13
2022-08-17T14:06:53.050Z,95390.81
2022-08-17T14:09:24.232Z,95387.97
2022-08-17T14:11:51.746Z,95384.28
2022-08-17T14:14:18.707Z,95392.47
2022-08-17T14:16:45.349Z,95389.75
2022-08-17T14:19:13.676Z,95387.00
2022-08-17T14:21:45.345Z,95381.91
2022-08-17T14:24:22.695Z,95388.50
2022-08-17T14:26:52.126Z,95377.94
2022-08-17T14:29:20.438Z,95385.75
2022-08-17T14:31:53.232Z,95384.47
2022-08-17T14:34:21.447Z,95378.22
2022-08-17T14:36:48.869Z,95370.72
2022-08-17T14:39:16.746Z,95363.84
2022-08-17T14:41:43.752Z,95352.16
2022-08-17T14:44:13.113Z,95363.03
2022-08-17T14:46:41.289Z,95356.59
2022-08-17T14:49:10.803Z,95364.47
2022-08-17T14:51:43.694Z,95359.28
2022-08-17T14:54:11.861Z,95362.94
2022-08-17T14:57:14.812Z,95367.25
2022-08-17T14:59:45.150Z,95352.06
2022-08-17T15:02:12.426Z,95353.97
2022-08-17T15:04:44.920Z,95353.19
2022-08-17T15:07:12.149Z,95365.00
2022-08-17T15:09:39.092Z,95362.13
2022-08-17T15:12:06.715Z,95364.31
2022-08-17T15:14:35.482Z,95362.19
2022-08-17T15:17:05.700Z,95363.16
2022-08-17T15:19:32.273Z,95366.34
2022-08-17T15:21:58.821Z,95368.13
2022-08-17T15:24:25.377Z,95381.59
2022-08-17T15:26:51.907Z,95374.28
2022-08-17T15:29:18.435Z,95382.28
2022-08-17T15:31:45.222Z,95383.56
2022-08-17T15:34:11.919Z,95387.25
2022-08-17T15:36:38.898Z,95382.94
2022-08-17T15:39:14.481Z,95390.22
2022-08-17T15:41:47.315Z,95389.91
2022-08-17T15:44:32.504Z,95389.22
2022-08-17T15:47:01.924Z,95389.84
2022-08-17T15:49:28.459Z,95388.28
2022-08-17T15:51:55.170Z,95390.66
2022-08-17T15:54:22.721Z,95393.81
2022-08-17T15:56:50.238Z,95389.03
2022-08-17T15:59:16.852Z,95402.31
2022-08-17T16:03:15.345Z,95402.78
2022-08-17T16:04:31.823Z,95411.09
2022-08-17T16:06:59.295Z,95417.88
2022-08-17T16:09:25.914Z,95420.72
2022-08-17T16:11:55.529Z,95423.63
2022-08-17T16:14:24.189Z,95424.13
2022-08-17T16:16:50.984Z,95420.13
2022-08-17T16:19:17.573Z,95419.84
2022-08-17T16:21:44.110Z,95420.47
2022-08-17T16:24:13.376Z,95420.47
2022-08-17T16:26:42.226Z,95422.25
2022-08-17T16:29:08.985Z,95417.44
2022-08-17T16:31:37.636Z,95423.03
2022-08-17T16:34:16.699Z,95412.66
2022-08-17T16:36:54.869Z,95410.25
2022-08-17T16:39:26.993Z,95400.81
2022-08-17T16:41:53.739Z,95406.56
2022-08-17T16:44:21.984Z,95413.91
2022-08-17T16:46:49.199Z,95420.31
2022-08-17T16:49:24.417Z,95421.28
2022-08-17T16:52:10.570Z,95415.84
2022-08-17T16:54:39.437Z,95421.28
2022-08-17T16:57:06.034Z,95409.59
2022-08-17T16:59:40.298Z,95414.22
2022-08-17T17:02:12.968Z,95425.59
2022-08-17T17:04:48.139Z,95424.63
2022-08-17T17:07:34.314Z,95425.00
2022-08-17T17:10:10.771Z,95427.72
2022-08-17T17:13:02.248Z,95433.78
2022-08-17T17:15:33.420Z,95443.59
2022-08-17T17:18:09.199Z,95447.13
2022-08-17T17:20:45.846Z,95439.25
2022-08-17T17:23:41.117Z,95454.88
2022-08-17T17:26:55.179Z,95445.75
2022-08-17T17:30:03.302Z,95443.34
2022-08-17T17:32:49.892Z,95443.81
2022-08-17T17:35:36.707Z,95447.44
2022-08-17T17:38:13.221Z,95446.44
2022-08-17T17:40:51.515Z,95438.59
2022-08-17T17:43:40.575Z,95441.28
2022-08-17T17:46:27.599Z,95443.44
2022-08-17T17:48:57.052Z,95457.66
2022-08-17T17:52:03.692Z,95461.91
2022-08-17T17:54:17.508Z,95459.19
2022-08-17T17:56:48.954Z,95474.13
2022-08-17T17:59:44.108Z,95469.34
2022-08-17T18:02:51.864Z,95466.38
2022-08-17T18:05:51.499Z,95468.72
2022-08-17T18:08:34.373Z,95469.47
2022-08-17T18:11:13.279Z,95471.81
2022-08-17T18:14:07.576Z,95480.97
2022-08-17T18:16:35.010Z,95477.34
2022-08-17T18:19:01.661Z,95473.75
2022-08-17T18:21:44.011Z,95484.00
2022-08-17T18:24:10.847Z,95477.44
2022-08-17T18:26:45.485Z,95476.22
2022-08-17T18:29:23.352Z,95475.38
2022-08-17T18:32:27.131Z,95483.19
2022-08-17T18:35:27.969Z,95482.28
2022-08-17T18:37:58.022Z,95492.56
2022-08-17T18:40:34.602Z,95488.38
2022-08-17T18:43:02.988Z,95492.25
2022-08-17T18:45:48.636Z,95495.66
2022-08-17T18:48:26.403Z,95486.66
2022-08-17T18:50:57.259Z,95497.84
2022-08-17T18:53:34.060Z,95495.56
2022-08-17T18:56:20.062Z,95498.84
2022-08-17T18:59:16.015Z,95504.75
2022-08-17T19:01:59.869Z,95498.63
2022-08-17T19:04:34.775Z,95491.41
2022-08-17T19:07:03.411Z,95500.97
2022-08-17T19:09:34.439Z,95500.22
2022-08-17T19:12:07.092Z,95497.91
2022-08-17T19:14:34.540Z,95497.50
2022-08-17T19:17:09.919Z,95498.16
2022-08-17T19:19:56.267Z,95500.22
2022-08-17T19:22:34.544Z,95502.19
2022-08-17T19:25:12.220Z,95502.84
2022-08-17T19:27:50.600Z,95514.03
2022-08-17T19:30:24.397Z,95509.28
2022-08-17T19:32:51.633Z,95512.84
2022-08-17T19:35:20.286Z,95512.84
2022-08-17T19:38:02.673Z,95520.47
2022-08-17T19:41:09.947Z,95524.34
2022-08-17T19:43:42.490Z,95519.00
2022-08-17T19:46:27.345Z,95526.66
2022-08-17T19:49:18.633Z,95536.44
2022-08-17T19:52:02.061Z,95536.44
2022-08-17T19:54:39.677Z,95531.81
2022-08-17T19:57:16.354Z,95529.78
2022-08-17T20:00:01.873Z,95536.09
2022-08-17T20:02:58.058Z,95535.41
2022-08-17T20:05:44.432Z,95544.88
2022-08-17T20:08:33.953Z,95539.53
2022-08-17T20:11:10.097Z,95537.69
2022-08-17T20:13:44.285Z,95546.66
2022-08-17T20:16:12.205Z,95546.19
2022-08-17T20:18:49.344Z,95553.50
2022-08-17T20:21:23.070Z,95544.88
2022-08-17T20:23:52.164Z,95541.94
2022-08-17T20:26:26.433Z,95545.75
2022-08-17T20:29:29.572Z,95538.28
2022-08-17T20:32:22.924Z,95539.69
2022-08-17T20:35:05.593Z,95550.50
2022-08-17T20:37:34.911Z,95548.97
2022-08-17T20:40:04.403Z,95544.41
2022-08-17T20:42:33.761Z,95543.09
2022-08-17T20:45:05.649Z,95551.72
2022-08-17T20:47:35.702Z,95542.38
2022-08-17T20:50:08.102Z,95544.88
2022-08-17T20:52:52.252Z,95544.63
2022-08-17T20:55:34.282Z,95554.09
2022-08-17T20:58:15.870Z,95557.09
2022-08-17T21:00:57.530Z,95553.88
2022-08-17T21:03:24.190Z,95561.72
2022-08-17T21:06:00.268Z,95561.75
2022-08-17T21:08:43.737Z,95556.69
2022-08-17T21:12:01.476Z,95550.81
2022-08-17T21:14:29.708Z,95562.69
2022-08-17T21:17:17.758Z,95560.03
2022-08-17T21:20:14.299Z,95559.50
2022-08-17T21:23:02.236Z,95558.47
2022-08-17T21:25:53.191Z,95550.38
2022-08-17T21:28:34.271Z,95548.25
2022-08-17T21:31:09.164Z,95553.09
2022-08-17T21:33:39.565Z,95547.22
2022-08-17T21:36:12.078Z,95554.19
2022-08-17T21:38:47.686Z,95563.09
2022-08-17T21:41:54.519Z,95557.75
2022-08-17T21:44:49.352Z,95559.94
2022-08-17T21:47:24.716Z,95556.44
2022-08-17T21:49:53.135Z,95559.16
2022-08-17T21:52:24.082Z,95559.44
2022-08-17T21:54:54.269Z,95565.06
2022-08-17T21:57:24.227Z,95569.09
2022-08-17T21:59:57.261Z,95573.69
2022-08-17T22:02:36.117Z,95577.97
2022-08-17T22:05:05.577Z,95578.81
2022-08-17T22:07:41.605Z,95569.66
2022-08-17T22:10:47.512Z,95567.78
2022-08-17T22:13:17.666Z,95568.31
2022-08-17T22:15:47.997Z,95566.44
2022-08-17T22:18:24.537Z,95556.25
2022-08-17T22:20:54.808Z,95554.13
2022-08-17T22:23:47.717Z,95550.63
2022-08-17T22:26:16.730Z,95547.41
2022-08-17T22:28:45.969Z,95544.72
2022-08-17T22:31:18.137Z,95540.94
2022-08-17T22:33:49.114Z,95544.19
2022-08-17T22:36:29.437Z,95545.03
2022-08-17T22:38:56.161Z,95538.56
2022-08-17T22:41:41.198Z,95542.06
2022-08-17T22:44:15.457Z,95538.31
2022-08-17T22:46:49.122Z,95548.28
2022-08-17T22:49:26.765Z,95549.59
2022-08-17T22:52:19.939Z,95548.00
2022-08-17T22:55:09.324Z,95538.88
2022-08-17T22:57:55.089Z,95552.03
2022-08-17T23:00:33.406Z,95538.63
2022-08-17T23:03:23.496Z,95544.81
2022-08-17T23:06:09.656Z,95535.41
2022-08-17T23:08:54.700Z,95533.53
2022-08-17T23:11:36.556Z,95537.28
2022-08-17T23:14:14.499Z,95540.75
2022-08-17T23:16:44.608Z,95549.34
2022-08-17T23:19:15.420Z,95543.44
2022-08-17T23:21:44.902Z,95535.13
2022-08-17T23:24:17.373Z,95534.31
2022-08-17T23:26:43.953Z,95536.19
2022-08-17T23:29:10.559Z,95540.47
2022-08-17T23:31:38.607Z,95536.97
2022-08-17T23:34:09.195Z,95541.56
2022-08-17T23:36:36.264Z,95553.09
2022-08-17T23:39:03.842Z,95541.03
2022-08-17T23:41:34.640Z,95548.25
2022-08-17T23:44:02.961Z,95548.25
2022-08-17T23:46:29.514Z,95552.81
2022-08-17T23:48:56.090Z,95555.75
2022-08-17T23:51:30.825Z,95550.13
2022-08-17T23:54:07.939Z,95553.88
2022-08-17T23:56:38.572Z,95553.34
2022-08-17T23:59:05.603Z,95557.13
